createdAt,value
2018-07-19T00:00:45.867Z,0
2018-07-19T00:01:45.831Z,0
2018-07-19T00:02:46.954Z,0
2018-07-19T00:03:45.827Z,0
2018-07-19T00:04:45.827Z,0
2018-07-19T00:05:45.566Z,0
2018-07-19T00:06:47.035Z,0
2018-07-19T00:07:45.552Z,0
2018-07-19T00:08:45.812Z,0
2018-07-19T00:09:47.728Z,0
2018-07-19T00:10:45.807Z,0
2018-07-19T00:11:45.821Z,0
2018-07-19T00:12:47.227Z,0
2018-07-19T00:13:45.806Z,0
2018-07-19T00:14:45.812Z,0
2018-07-19T00:15:45.539Z,0
2018-07-19T00:16:46.991Z,0
2018-07-19T00:17:45.778Z,0
2018-07-19T00:18:45.252Z,0
2018-07-19T00:19:46.375Z,0
2018-07-19T00:20:46.282Z,0
2018-07-19T00:21:45.517Z,0
2018-07-19T00:22:45.239Z,0
2018-07-19T00:23:47.080Z,0
2018-07-19T00:24:45.788Z,0
2018-07-19T00:25:45.768Z,0
2018-07-19T00:26:45.754Z,0
2018-07-19T00:27:47.535Z,0
2018-07-19T00:28:45.770Z,0
2018-07-19T00:29:45.225Z,0
2018-07-19T00:30:45.785Z,0
2018-07-19T00:31:47.718Z,0
2018-07-19T00:32:45.736Z,0
2018-07-19T00:33:45.462Z,0
2018-07-19T00:34:46.063Z,0
2018-07-19T00:35:45.511Z,0
2018-07-19T00:36:45.733Z,0
2018-07-19T00:37:45.192Z,0
2018-07-19T00:38:47.508Z,0
2018-07-19T00:39:45.433Z,0
2018-07-19T00:40:45.708Z,0
2018-07-19T00:41:45.459Z,0
2018-07-19T00:42:47.442Z,0
2018-07-19T00:43:45.684Z,0
2018-07-19T00:44:45.695Z,0
2018-07-19T00:45:47.376Z,0
2018-07-19T00:46:45.686Z,0
2018-07-19T00:47:45.157Z,0
2018-07-19T00:48:45.681Z,0
2018-07-19T00:49:47.044Z,0
2018-07-19T00:50:45.402Z,0
2018-07-19T00:51:45.385Z,0
2018-07-19T00:52:45.663Z,0
2018-07-19T00:53:47.936Z,0
2018-07-19T00:54:45.644Z,0
2018-07-19T00:55:45.671Z,0
2018-07-19T00:56:45.662Z,0
2018-07-19T00:57:47.744Z,0
2018-07-19T00:58:45.388Z,0
2018-07-19T00:59:45.637Z,0
2018-07-19T01:00:46.152Z,0
2018-07-19T01:01:46.454Z,0
2018-07-19T01:02:45.623Z,0
2018-07-19T01:03:45.127Z,0
2018-07-19T01:04:46.556Z,0
2018-07-19T01:05:45.359Z,0
2018-07-19T01:06:45.615Z,0
2018-07-19T01:07:45.613Z,0
2018-07-19T01:08:46.185Z,0
2018-07-19T01:09:45.600Z,0
2018-07-19T01:10:45.327Z,0
2018-07-19T01:11:46.410Z,0
2018-07-19T01:12:45.066Z,0
2018-07-19T01:13:45.324Z,0
2018-07-19T01:14:45.330Z,0
2018-07-19T01:15:47.632Z,0
2018-07-19T01:16:45.590Z,0
2018-07-19T01:17:45.085Z,0
2018-07-19T01:18:46.557Z,0
2018-07-19T01:19:45.311Z,0
2018-07-19T01:20:45.657Z,0
2018-07-19T01:21:46.480Z,0
2018-07-19T01:22:45.540Z,0
2018-07-19T01:23:45.536Z,0
2018-07-19T01:24:46.941Z,0
2018-07-19T01:25:45.281Z,0
2018-07-19T01:26:45.539Z,0
2018-07-19T01:27:46.073Z,0
2018-07-19T01:28:45.969Z,0
2018-07-19T01:29:45.290Z,0
2018-07-19T01:30:45.257Z,0
2018-07-19T01:31:45.763Z,0
2018-07-19T01:32:45.918Z,0
2018-07-19T01:33:45.249Z,0
2018-07-19T01:34:45.267Z,0
2018-07-19T01:35:45.249Z,0
2018-07-19T01:36:46.373Z,0
2018-07-19T01:37:44.994Z,0
2018-07-19T01:38:45.506Z,0
2018-07-19T01:39:45.483Z,0
2018-07-19T01:40:46.605Z,0
2018-07-19T01:41:45.211Z,0
2018-07-19T01:42:45.507Z,0
2018-07-19T01:43:46.422Z,0
2018-07-19T01:44:45.487Z,0
2018-07-19T01:45:45.479Z,0
2018-07-19T01:46:45.944Z,0
2018-07-19T01:47:45.449Z,0
2018-07-19T01:48:45.455Z,0
2018-07-19T01:49:46.483Z,0
2018-07-19T01:50:45.448Z,0
2018-07-19T01:51:45.429Z,0
2018-07-19T01:52:47.312Z,0
2018-07-19T01:53:45.673Z,0
2018-07-19T01:54:45.433Z,0
2018-07-19T01:55:46.214Z,0
2018-07-19T01:56:44.901Z,0
2018-07-19T01:57:45.439Z,0
2018-07-19T01:58:45.957Z,0
2018-07-19T01:59:45.954Z,0
2018-07-19T02:00:45.441Z,0
2018-07-19T02:01:45.437Z,0
2018-07-19T02:02:47.151Z,0
2018-07-19T02:03:45.391Z,0
2018-07-19T02:04:45.133Z,0
2018-07-19T02:05:47.213Z,0
2018-07-19T02:06:45.139Z,0
2018-07-19T02:07:44.866Z,0
2018-07-19T02:08:45.915Z,0
2018-07-19T02:09:45.109Z,0
2018-07-19T02:10:45.105Z,0
2018-07-19T02:11:46.193Z,0
2018-07-19T02:12:45.937Z,0
2018-07-19T02:13:45.351Z,0
2018-07-19T02:14:45.344Z,0
2018-07-19T02:15:45.671Z,0
2018-07-19T02:16:44.559Z,0
2018-07-19T02:17:45.344Z,0
2018-07-19T02:18:47.056Z,0
2018-07-19T02:19:45.074Z,0
2018-07-19T02:20:45.335Z,0
2018-07-19T02:21:45.506Z,0
2018-07-19T02:22:45.054Z,0
2018-07-19T02:23:45.062Z,0
2018-07-19T02:24:48.089Z,0
2018-07-19T02:25:45.061Z,0
2018-07-19T02:26:45.042Z,0
2018-07-19T02:27:46.945Z,0
2018-07-19T02:28:45.304Z,0
2018-07-19T02:29:45.028Z,0
2018-07-19T02:30:46.045Z,0
2018-07-19T02:31:45.035Z,0
2018-07-19T02:32:45.322Z,0
2018-07-19T02:33:46.057Z,0
2018-07-19T02:34:45.031Z,0
2018-07-19T02:35:45.268Z,0
2018-07-19T02:36:45.250Z,0
2018-07-19T02:37:45.528Z,0
2018-07-19T02:38:45.262Z,0
2018-07-19T02:39:45.002Z,0
2018-07-19T02:40:47.430Z,0
2018-07-19T02:41:45.254Z,0
2018-07-19T02:42:45.251Z,0
2018-07-19T02:43:47.286Z,0
2018-07-19T02:44:44.976Z,0
2018-07-19T02:45:45.248Z,0
2018-07-19T02:46:46.748Z,0
2018-07-19T02:47:44.964Z,0
2018-07-19T02:48:44.694Z,0
2018-07-19T02:49:45.222Z,0
2018-07-19T02:50:45.951Z,0
2018-07-19T02:51:45.220Z,0
2018-07-19T02:52:45.195Z,0
2018-07-19T02:53:47.234Z,0
2018-07-19T02:54:44.696Z,0
2018-07-19T02:55:45.449Z,0
2018-07-19T02:56:46.471Z,5
2018-07-19T02:57:44.915Z,5
2018-07-19T02:58:44.937Z,5
2018-07-19T02:59:45.745Z,5
2018-07-19T03:00:45.458Z,5
2018-07-19T03:01:44.637Z,5
2018-07-19T03:02:44.914Z,5
2018-07-19T03:03:46.533Z,5
2018-07-19T03:04:45.153Z,5
2018-07-19T03:05:45.148Z,10
2018-07-19T03:06:46.395Z,10
2018-07-19T03:07:45.638Z,10
2018-07-19T03:08:44.884Z,10
2018-07-19T03:09:46.127Z,10
2018-07-19T03:10:45.436Z,10
2018-07-19T03:11:44.876Z,15
2018-07-19T03:12:44.324Z,15
2018-07-19T03:13:46.427Z,15
2018-07-19T03:14:45.114Z,15
2018-07-19T03:15:45.124Z,20
2018-07-19T03:16:46.588Z,20
2018-07-19T03:18:44.845Z,25
2018-07-19T03:19:45.588Z,25
2018-07-19T03:20:44.818Z,25
2018-07-19T03:21:44.552Z,25
2018-07-19T03:22:46.158Z,30
2018-07-19T03:23:45.060Z,30
2018-07-19T03:24:45.070Z,30
2018-07-19T03:25:45.064Z,35
2018-07-19T03:26:45.384Z,35
2018-07-19T03:27:45.065Z,35
2018-07-19T03:28:45.096Z,40
2018-07-19T03:29:46.904Z,40
2018-07-19T03:30:45.069Z,40
2018-07-19T03:31:45.061Z,40
2018-07-19T03:32:46.050Z,45
2018-07-19T03:33:44.762Z,45
2018-07-19T03:34:44.753Z,45
2018-07-19T03:35:46.144Z,45
2018-07-19T03:36:45.029Z,50
2018-07-19T03:37:45.018Z,50
2018-07-19T03:38:45.947Z,50
2018-07-19T03:39:45.498Z,50
2018-07-19T03:40:44.745Z,50
2018-07-19T03:41:44.226Z,55
2018-07-19T03:42:46.047Z,55
2018-07-19T03:43:44.994Z,55
2018-07-19T03:44:44.740Z,60
2018-07-19T03:45:46.583Z,60
2018-07-19T03:46:44.997Z,60
2018-07-19T03:47:44.749Z,65
2018-07-19T03:48:47.172Z,65
2018-07-19T03:49:44.970Z,70
2018-07-19T03:50:44.969Z,70
2018-07-19T03:51:46.170Z,75
2018-07-19T03:52:45.004Z,75
2018-07-19T03:53:44.953Z,80
2018-07-19T03:54:47.151Z,85
2018-07-19T03:55:44.665Z,85
2018-07-19T03:56:44.936Z,90
2018-07-19T03:57:46.358Z,95
2018-07-19T03:58:44.939Z,105
2018-07-19T03:59:44.922Z,110
2018-07-19T04:00:45.405Z,115
2018-07-19T04:01:44.919Z,125
2018-07-19T04:02:44.913Z,135
2018-07-19T04:03:45.300Z,145
2018-07-19T04:04:45.985Z,150
2018-07-19T04:05:44.640Z,165
2018-07-19T04:06:44.893Z,170
2018-07-19T04:07:46.835Z,180
2018-07-19T04:08:44.899Z,185
2018-07-19T04:09:44.885Z,190
2018-07-19T04:10:47.112Z,200
2018-07-19T04:11:44.924Z,205
2018-07-19T04:12:44.628Z,210
2018-07-19T04:13:44.897Z,215
2018-07-19T04:14:45.820Z,220
2018-07-19T04:15:44.875Z,225
2018-07-19T04:16:44.865Z,225
2018-07-19T04:17:46.558Z,235
2018-07-19T04:18:44.857Z,240
2018-07-19T04:19:44.883Z,250
2018-07-19T04:20:44.078Z,255
2018-07-19T04:21:46.485Z,260
2018-07-19T04:22:44.597Z,265
2018-07-19T04:23:44.866Z,245
2018-07-19T04:24:45.792Z,225
2018-07-19T04:25:44.857Z,255
2018-07-19T04:26:44.599Z,275
2018-07-19T04:27:45.053Z,285
2018-07-19T04:28:45.547Z,295
2018-07-19T04:29:44.848Z,310
2018-07-19T04:30:44.591Z,315
2018-07-19T04:31:46.322Z,320
2018-07-19T04:32:44.592Z,330
2018-07-19T04:33:44.844Z,340
2018-07-19T04:34:44.601Z,340
2018-07-19T04:35:46.169Z,335
2018-07-19T04:36:44.596Z,340
2018-07-19T04:37:44.840Z,345
2018-07-19T04:38:46.138Z,355
2018-07-19T04:39:44.327Z,365
2018-07-19T04:40:44.885Z,350
2018-07-19T04:41:45.115Z,340
2018-07-19T04:42:45.315Z,335
2018-07-19T04:43:44.888Z,335
2018-07-19T04:44:44.878Z,325
2018-07-19T04:45:46.048Z,340
2018-07-19T04:46:44.853Z,350
2018-07-19T04:47:44.870Z,370
2018-07-19T04:48:46.009Z,405
2018-07-19T04:49:44.350Z,420
2018-07-19T04:50:44.623Z,395
2018-07-19T04:51:45.536Z,425
2018-07-19T04:52:45.486Z,440
2018-07-19T04:53:44.644Z,455
2018-07-19T04:54:45.301Z,460
2018-07-19T04:55:46.273Z,465
2018-07-19T04:56:44.909Z,460
2018-07-19T04:57:44.918Z,445
2018-07-19T04:58:46.652Z,490
2018-07-19T04:59:45.194Z,485
2018-07-19T05:00:44.940Z,490
2018-07-19T05:01:44.853Z,500
2018-07-19T05:02:45.937Z,515
2018-07-19T05:03:44.953Z,520
2018-07-19T05:04:44.693Z,530
2018-07-19T05:05:47.024Z,525
2018-07-19T05:06:44.954Z,560
2018-07-19T05:07:44.708Z,565
2018-07-19T05:08:45.000Z,570
2018-07-19T05:09:46.520Z,605
2018-07-19T05:10:44.994Z,610
2018-07-19T05:11:44.456Z,480
2018-07-19T05:12:46.792Z,520
2018-07-19T05:13:44.991Z,445
2018-07-19T05:14:45.028Z,445
2018-07-19T05:15:45.396Z,495
2018-07-19T05:16:46.046Z,635
2018-07-19T05:17:45.028Z,645
2018-07-19T05:18:44.787Z,635
2018-07-19T05:19:46.373Z,605
2018-07-19T05:20:45.068Z,610
2018-07-19T05:21:44.809Z,610
2018-07-19T05:22:45.084Z,620
2018-07-19T05:23:46.792Z,615
2018-07-19T05:24:45.072Z,630
2018-07-19T05:25:45.092Z,630
2018-07-19T05:26:45.482Z,630
2018-07-19T05:27:44.873Z,660
2018-07-19T05:28:44.850Z,670
2018-07-19T05:29:45.117Z,690
2018-07-19T05:30:46.272Z,680
2018-07-19T05:31:45.141Z,680
2018-07-19T05:32:45.167Z,635
2018-07-19T05:33:46.844Z,510
2018-07-19T05:34:45.335Z,425
2018-07-19T05:35:45.185Z,770
2018-07-19T05:36:45.193Z,715
2018-07-19T05:37:46.755Z,730
2018-07-19T05:38:44.957Z,725
2018-07-19T05:39:44.940Z,610
2018-07-19T05:40:46.555Z,715
2018-07-19T05:41:45.445Z,515
2018-07-19T05:42:45.004Z,510
2018-07-19T05:43:45.267Z,965
2018-07-19T05:44:47.631Z,930
2018-07-19T05:45:45.242Z,795
2018-07-19T05:46:44.734Z,495
2018-07-19T05:47:45.678Z,520
2018-07-19T05:48:47.369Z,660
2018-07-19T05:49:45.337Z,1150
2018-07-19T05:50:45.059Z,790
2018-07-19T05:51:45.746Z,540
2018-07-19T05:52:45.066Z,570
2018-07-19T05:53:45.339Z,895
2018-07-19T05:54:45.087Z,1110
2018-07-19T05:55:46.012Z,1070
2018-07-19T05:56:45.108Z,1065
2018-07-19T05:57:45.092Z,940
2018-07-19T05:58:47.359Z,845
2018-07-19T05:59:44.892Z,1065
2018-07-19T06:00:45.119Z,1075
2018-07-19T06:01:47.094Z,1110
2018-07-19T06:02:45.406Z,580
2018-07-19T06:03:45.158Z,525
2018-07-19T06:04:45.384Z,1075
2018-07-19T06:05:45.433Z,1140
2018-07-19T06:06:45.694Z,570
2018-07-19T06:07:47.684Z,675
2018-07-19T06:08:45.482Z,515
2018-07-19T06:09:45.963Z,545
2018-07-19T06:10:45.487Z,535
2018-07-19T06:11:46.933Z,470
2018-07-19T06:12:45.718Z,410
2018-07-19T06:13:45.248Z,440
2018-07-19T06:14:45.275Z,485
2018-07-19T06:15:47.136Z,440
2018-07-19T06:16:45.540Z,415
2018-07-19T06:17:45.008Z,445
2018-07-19T06:18:46.067Z,445
2018-07-19T06:19:46.794Z,560
2018-07-19T06:20:45.602Z,540
2018-07-19T06:21:45.629Z,540
2018-07-19T06:22:47.800Z,670
2018-07-19T06:23:45.378Z,1535
2018-07-19T06:24:45.621Z,1265
2018-07-19T06:25:46.926Z,875
2018-07-19T06:26:45.665Z,960
2018-07-19T06:27:45.641Z,1160
2018-07-19T06:28:47.410Z,910
2018-07-19T06:29:45.669Z,1460
2018-07-19T06:30:45.407Z,780
2018-07-19T06:31:46.886Z,715
2018-07-19T06:32:46.119Z,640
2018-07-19T06:33:45.465Z,575
2018-07-19T06:34:45.711Z,590
2018-07-19T06:35:45.709Z,550
2018-07-19T06:36:46.260Z,510
2018-07-19T06:37:45.456Z,545
2018-07-19T06:38:45.171Z,650
2018-07-19T06:39:46.067Z,855
2018-07-19T06:40:45.732Z,895
2018-07-19T06:41:45.720Z,775
2018-07-19T06:42:45.947Z,820
2018-07-19T06:43:45.784Z,665
2018-07-19T06:44:45.765Z,685
2018-07-19T06:45:45.721Z,545
2018-07-19T06:46:46.549Z,545
2018-07-19T06:47:45.744Z,680
2018-07-19T06:48:45.484Z,830
2018-07-19T06:49:47.139Z,680
2018-07-19T06:50:45.763Z,1395
2018-07-19T06:51:45.804Z,1580
2018-07-19T06:52:47.592Z,570
2018-07-19T06:53:45.783Z,730
2018-07-19T06:54:45.822Z,685
2018-07-19T06:55:46.861Z,1510
2018-07-19T06:56:45.805Z,1560
2018-07-19T06:57:45.890Z,1500
2018-07-19T06:58:47.220Z,755
2018-07-19T06:59:45.840Z,890
2018-07-19T07:00:45.832Z,1105
2018-07-19T07:01:46.326Z,1100
2018-07-19T07:02:46.008Z,1345
2018-07-19T07:03:46.705Z,1075
2018-07-19T07:04:45.890Z,535
2018-07-19T07:05:46.785Z,525
2018-07-19T07:06:45.659Z,650
2018-07-19T07:07:45.636Z,585
2018-07-19T07:08:46.414Z,420
2018-07-19T07:09:45.651Z,445
2018-07-19T07:10:45.908Z,500
2018-07-19T07:11:47.955Z,515
2018-07-19T07:12:45.648Z,470
2018-07-19T07:13:45.680Z,410
2018-07-19T07:14:46.878Z,425
2018-07-19T07:15:45.689Z,410
2018-07-19T07:16:45.970Z,410
2018-07-19T07:17:47.165Z,390
2018-07-19T07:18:45.696Z,340
2018-07-19T07:19:45.685Z,345
2018-07-19T07:20:46.437Z,360
2018-07-19T07:21:46.055Z,450
2018-07-19T07:22:45.980Z,510
2018-07-19T07:23:45.440Z,515
2018-07-19T07:24:47.578Z,475
2018-07-19T07:25:45.467Z,495
2018-07-19T07:26:45.752Z,530
2018-07-19T07:27:47.905Z,465
2018-07-19T07:28:46.013Z,455
2018-07-19T07:29:45.745Z,435
2018-07-19T07:30:47.959Z,440
2018-07-19T07:31:46.013Z,445
2018-07-19T07:32:45.996Z,415
2018-07-19T07:33:47.857Z,395
2018-07-19T07:34:46.525Z,370
2018-07-19T07:35:46.078Z,320
2018-07-19T07:36:46.568Z,315
2018-07-19T07:37:46.104Z,310
2018-07-19T07:38:45.847Z,300
2018-07-19T07:39:48.153Z,285
2018-07-19T07:40:46.096Z,270
2018-07-19T07:41:45.830Z,270
2018-07-19T07:42:46.831Z,295
2018-07-19T07:43:45.796Z,315
2018-07-19T07:44:46.114Z,335
2018-07-19T07:45:47.681Z,350
2018-07-19T07:46:46.079Z,350
2018-07-19T07:47:46.062Z,365
2018-07-19T07:48:46.569Z,400
2018-07-19T07:49:47.303Z,435
2018-07-19T07:50:46.041Z,485
2018-07-19T07:51:45.833Z,485
2018-07-19T07:52:47.511Z,495
2018-07-19T07:53:46.074Z,535
2018-07-19T07:54:45.803Z,585
2018-07-19T07:55:47.328Z,635
2018-07-19T07:56:46.057Z,660
2018-07-19T07:57:46.095Z,670
2018-07-19T07:58:46.375Z,690
2018-07-19T07:59:46.392Z,700
2018-07-19T08:00:46.091Z,690
2018-07-19T08:01:46.080Z,660
2018-07-19T08:02:48.118Z,550
2018-07-19T08:03:45.830Z,530
2018-07-19T08:04:46.100Z,440
2018-07-19T08:05:47.137Z,400
2018-07-19T08:06:46.105Z,375
2018-07-19T08:07:46.083Z,370
2018-07-19T08:08:46.934Z,390
2018-07-19T08:09:45.841Z,405
2018-07-19T08:10:45.837Z,385
2018-07-19T08:11:46.569Z,365
2018-07-19T08:12:46.107Z,355
2018-07-19T08:13:46.162Z,335
2018-07-19T08:14:46.708Z,305
2018-07-19T08:15:45.976Z,295
2018-07-19T08:16:46.096Z,305
2018-07-19T08:17:47.544Z,330
2018-07-19T08:18:45.841Z,390
2018-07-19T08:19:45.844Z,380
2018-07-19T08:20:48.678Z,380
2018-07-19T08:21:46.221Z,385
2018-07-19T08:22:45.872Z,495
2018-07-19T08:23:47.460Z,510
2018-07-19T08:24:45.886Z,450
2018-07-19T08:25:45.596Z,375
2018-07-19T08:26:46.815Z,315
2018-07-19T08:27:47.643Z,300
2018-07-19T08:28:46.155Z,345
2018-07-19T08:29:46.121Z,395
2018-07-19T08:30:46.019Z,365
2018-07-19T08:31:46.156Z,320
2018-07-19T08:32:46.130Z,260
2018-07-19T08:33:47.471Z,235
2018-07-19T08:34:45.888Z,245
2018-07-19T08:35:45.894Z,240
2018-07-19T08:36:48.399Z,240
2018-07-19T08:37:46.153Z,215
2018-07-19T08:38:46.151Z,210
2018-07-19T08:39:48.553Z,215
2018-07-19T08:40:46.149Z,220
2018-07-19T08:41:45.958Z,205
2018-07-19T08:42:47.605Z,170
2018-07-19T08:43:46.145Z,190
2018-07-19T08:44:46.168Z,210
2018-07-19T08:45:47.196Z,205
2018-07-19T08:46:46.657Z,195
2018-07-19T08:47:45.869Z,185
2018-07-19T08:48:47.058Z,180
2018-07-19T08:49:45.888Z,185
2018-07-19T08:50:45.909Z,180
2018-07-19T08:51:46.264Z,175
2018-07-19T08:52:47.589Z,165
2018-07-19T08:53:45.891Z,165
2018-07-19T08:54:45.910Z,175
2018-07-19T08:55:48.211Z,185
2018-07-19T08:56:46.484Z,185
2018-07-19T08:57:46.167Z,190
2018-07-19T08:58:47.904Z,200
2018-07-19T08:59:45.880Z,205
2018-07-19T09:00:46.162Z,210
2018-07-19T09:01:48.286Z,215
2018-07-19T09:02:45.637Z,210
2018-07-19T09:03:45.630Z,205
2018-07-19T09:04:47.746Z,220
2018-07-19T09:05:45.900Z,220
2018-07-19T09:06:46.137Z,240
2018-07-19T09:07:46.439Z,250
2018-07-19T09:08:47.493Z,245
2018-07-19T09:09:46.126Z,245
2018-07-19T09:10:45.882Z,245
2018-07-19T09:11:48.228Z,260
2018-07-19T09:12:46.136Z,265
2018-07-19T09:13:46.147Z,255
2018-07-19T09:14:46.131Z,265
2018-07-19T09:15:47.837Z,280
2018-07-19T09:16:45.881Z,285
2018-07-19T09:17:46.146Z,305
2018-07-19T09:18:47.515Z,305
2018-07-19T09:19:46.628Z,275
2018-07-19T09:20:45.615Z,250
2018-07-19T09:21:46.637Z,230
2018-07-19T09:22:46.806Z,235
2018-07-19T09:23:45.887Z,235
2018-07-19T09:24:46.128Z,230
2018-07-19T09:25:48.474Z,235
2018-07-19T09:26:46.134Z,230
2018-07-19T09:27:46.131Z,235
2018-07-19T09:28:46.129Z,250
2018-07-19T09:29:47.176Z,260
2018-07-19T09:30:45.857Z,265
2018-07-19T09:31:45.867Z,275
2018-07-19T09:32:47.471Z,260
2018-07-19T09:33:45.857Z,250
2018-07-19T09:34:45.846Z,240
2018-07-19T09:35:47.163Z,230
2018-07-19T09:36:46.277Z,225
2018-07-19T09:37:45.907Z,215
2018-07-19T09:38:46.151Z,220
2018-07-19T09:39:48.105Z,220
2018-07-19T09:40:46.141Z,225
2018-07-19T09:41:46.096Z,240
2018-07-19T09:42:47.031Z,260
2018-07-19T09:43:46.374Z,265
2018-07-19T09:44:46.260Z,270
2018-07-19T09:45:45.829Z,285
2018-07-19T09:46:47.422Z,285
2018-07-19T09:47:46.244Z,285
2018-07-19T09:48:45.850Z,280
2018-07-19T09:49:48.034Z,280
2018-07-19T09:50:45.550Z,275
2018-07-19T09:51:46.112Z,275
2018-07-19T09:52:47.058Z,280
2018-07-19T09:53:46.508Z,285
2018-07-19T09:54:46.510Z,295
2018-07-19T09:55:45.875Z,300
2018-07-19T09:56:47.151Z,310
2018-07-19T09:57:46.095Z,310
2018-07-19T09:58:45.563Z,320
2018-07-19T09:59:48.209Z,355
2018-07-19T10:00:46.154Z,385
2018-07-19T10:01:45.885Z,415
2018-07-19T10:02:46.699Z,440
2018-07-19T10:03:46.541Z,450
2018-07-19T10:04:45.856Z,460
2018-07-19T10:05:46.376Z,470
2018-07-19T10:06:48.011Z,480
2018-07-19T10:07:46.109Z,485
2018-07-19T10:08:46.084Z,490
2018-07-19T10:09:46.351Z,500
2018-07-19T10:10:48.231Z,525
2018-07-19T10:11:46.074Z,560
2018-07-19T10:12:46.122Z,580
2018-07-19T10:13:47.871Z,605
2018-07-19T10:14:46.093Z,615
2018-07-19T10:15:45.807Z,605
2018-07-19T10:16:45.863Z,575
2018-07-19T10:17:48.142Z,535
2018-07-19T10:18:46.087Z,530
2018-07-19T10:19:45.875Z,565
2018-07-19T10:20:46.095Z,565
2018-07-19T10:21:47.087Z,560
2018-07-19T10:22:46.097Z,565
2018-07-19T10:23:46.268Z,575
2018-07-19T10:24:46.738Z,590
2018-07-19T10:25:45.554Z,595
2018-07-19T10:26:46.017Z,605
2018-07-19T10:27:46.107Z,605
2018-07-19T10:28:47.352Z,610
2018-07-19T10:29:46.469Z,595
2018-07-19T10:30:46.138Z,580
2018-07-19T10:31:45.864Z,550
2018-07-19T10:32:47.913Z,530
2018-07-19T10:33:45.851Z,525
2018-07-19T10:34:46.155Z,530
2018-07-19T10:35:47.388Z,520
2018-07-19T10:36:45.860Z,510
2018-07-19T10:37:46.417Z,495
2018-07-19T10:38:46.115Z,485
2018-07-19T10:39:47.993Z,480
2018-07-19T10:40:46.717Z,480
2018-07-19T10:41:45.883Z,475
2018-07-19T10:42:46.153Z,460
2018-07-19T10:43:46.615Z,450
2018-07-19T10:44:45.617Z,430
2018-07-19T10:45:45.892Z,420
2018-07-19T10:46:46.698Z,410
2018-07-19T10:47:46.757Z,395
2018-07-19T10:48:46.103Z,390
2018-07-19T10:49:46.107Z,385
2018-07-19T10:50:46.113Z,385
2018-07-19T10:51:45.961Z,385
2018-07-19T10:52:46.115Z,395
2018-07-19T10:53:46.143Z,395
2018-07-19T10:54:46.113Z,395
2018-07-19T10:55:46.122Z,395
2018-07-19T10:56:45.866Z,390
2018-07-19T10:57:46.127Z,385
2018-07-19T10:58:45.874Z,375
2018-07-19T10:59:45.614Z,375
2018-07-19T11:00:46.129Z,375
2018-07-19T11:01:46.138Z,375
2018-07-19T11:02:46.258Z,375
2018-07-19T11:03:46.167Z,375
2018-07-19T11:04:46.137Z,375
2018-07-19T11:05:46.135Z,375
2018-07-19T11:06:45.882Z,380
2018-07-19T11:07:46.217Z,380
2018-07-19T11:08:45.895Z,380
2018-07-19T11:09:46.335Z,380
2018-07-19T11:10:45.886Z,380
2018-07-19T11:11:46.401Z,375
2018-07-19T11:12:46.195Z,375
2018-07-19T11:13:46.181Z,375
2018-07-19T11:14:46.164Z,385
2018-07-19T11:15:46.265Z,390
2018-07-19T11:16:45.671Z,405
2018-07-19T11:17:46.194Z,420
2018-07-19T11:18:45.899Z,445
2018-07-19T11:19:45.899Z,450
2018-07-19T11:20:46.184Z,440
2018-07-19T11:21:45.665Z,435
2018-07-19T11:22:45.842Z,440
2018-07-19T11:23:46.156Z,430
2018-07-19T11:24:45.921Z,405
2018-07-19T11:25:45.905Z,385
2018-07-19T11:26:45.662Z,370
2018-07-19T11:27:45.909Z,360
2018-07-19T11:28:45.917Z,360
2018-07-19T11:29:45.914Z,355
2018-07-19T11:30:45.911Z,350
2018-07-19T11:31:46.160Z,360
2018-07-19T11:32:45.920Z,370
2018-07-19T11:33:45.951Z,380
2018-07-19T11:34:45.913Z,370
2018-07-19T11:35:45.677Z,370
2018-07-19T11:36:46.209Z,360
2018-07-19T11:37:46.184Z,355
2018-07-19T11:38:45.930Z,355
2018-07-19T11:39:45.929Z,355
2018-07-19T11:40:46.171Z,355
2018-07-19T11:41:45.872Z,360
2018-07-19T11:42:46.476Z,355
2018-07-19T11:43:45.937Z,340
2018-07-19T11:44:45.933Z,330
2018-07-19T11:45:46.189Z,315
2018-07-19T11:46:46.179Z,310
2018-07-19T11:47:45.926Z,305
2018-07-19T11:48:46.173Z,295
2018-07-19T11:49:46.221Z,285
2018-07-19T11:50:46.192Z,285
2018-07-19T11:51:46.184Z,290
2018-07-19T11:52:46.204Z,290
2018-07-19T11:53:46.192Z,305
2018-07-19T11:54:45.946Z,325
2018-07-19T11:55:46.435Z,330
2018-07-19T11:56:46.182Z,320
2018-07-19T11:57:45.692Z,315
2018-07-19T11:58:45.934Z,315
2018-07-19T11:59:46.215Z,290
2018-07-19T12:00:45.694Z,270
2018-07-19T12:01:45.813Z,250
2018-07-19T12:02:46.218Z,240
2018-07-19T12:03:45.959Z,220
2018-07-19T12:04:46.202Z,210
2018-07-19T12:05:45.961Z,205
2018-07-19T12:06:46.231Z,205
2018-07-19T12:07:46.199Z,200
2018-07-19T12:08:45.941Z,200
2018-07-19T12:09:45.952Z,200
2018-07-19T12:10:46.207Z,200
2018-07-19T12:11:45.707Z,200
2018-07-19T12:12:46.221Z,200
2018-07-19T12:13:45.942Z,200
2018-07-19T12:14:46.461Z,205
2018-07-19T12:15:45.944Z,210
2018-07-19T12:16:45.701Z,225
2018-07-19T12:17:45.958Z,240
2018-07-19T12:18:46.205Z,255
2018-07-19T12:19:45.954Z,260
2018-07-19T12:20:46.027Z,255
2018-07-19T12:21:46.236Z,260
2018-07-19T12:22:46.200Z,270
2018-07-19T12:23:45.950Z,290
2018-07-19T12:24:45.963Z,305
2018-07-19T12:25:45.966Z,350
2018-07-19T12:26:46.239Z,395
2018-07-19T12:27:45.950Z,435
2018-07-19T12:28:46.213Z,460
2018-07-19T12:29:45.951Z,470
2018-07-19T12:30:45.709Z,475
2018-07-19T12:31:46.229Z,470
2018-07-19T12:32:46.207Z,465
2018-07-19T12:33:46.224Z,455
2018-07-19T12:34:46.202Z,445
2018-07-19T12:35:46.207Z,440
2018-07-19T12:36:46.693Z,430
2018-07-19T12:37:46.223Z,425
2018-07-19T12:38:45.993Z,420
2018-07-19T12:39:45.712Z,435
2018-07-19T12:40:45.714Z,445
2018-07-19T12:41:45.705Z,455
2018-07-19T12:42:46.505Z,465
2018-07-19T12:43:46.229Z,475
2018-07-19T12:44:46.211Z,475
2018-07-19T12:45:46.213Z,475
2018-07-19T12:46:46.228Z,485
2018-07-19T12:47:45.711Z,490
2018-07-19T12:48:45.974Z,475
2018-07-19T12:49:45.967Z,450
2018-07-19T12:50:46.221Z,435
2018-07-19T12:51:46.241Z,435
2018-07-19T12:52:45.970Z,450
2018-07-19T12:53:45.974Z,475
2018-07-19T12:54:45.969Z,500
2018-07-19T12:55:45.743Z,505
2018-07-19T12:56:45.740Z,510
2018-07-19T12:57:46.227Z,540
2018-07-19T12:58:46.230Z,560
2018-07-19T12:59:45.991Z,555
2018-07-19T13:00:45.988Z,530
2018-07-19T13:01:46.234Z,515
2018-07-19T13:02:45.986Z,520
2018-07-19T13:03:45.749Z,520
2018-07-19T13:04:46.001Z,520
2018-07-19T13:05:46.243Z,515
2018-07-19T13:06:46.251Z,500
2018-07-19T13:07:45.765Z,480
2018-07-19T13:08:46.251Z,460
2018-07-19T13:09:46.000Z,440
2018-07-19T13:10:46.256Z,405
2018-07-19T13:11:46.263Z,385
2018-07-19T13:12:46.256Z,380
2018-07-19T13:13:46.008Z,385
2018-07-19T13:14:46.027Z,390
2018-07-19T13:15:46.268Z,395
2018-07-19T13:16:46.266Z,395
2018-07-19T13:17:46.273Z,405
2018-07-19T13:18:46.037Z,415
2018-07-19T13:19:46.021Z,415
2018-07-19T13:20:46.306Z,415
2018-07-19T13:21:46.060Z,410
2018-07-19T13:22:46.313Z,395
2018-07-19T13:23:46.055Z,380
2018-07-19T13:24:46.297Z,370
2018-07-19T13:25:46.302Z,360
2018-07-19T13:26:46.060Z,355
2018-07-19T13:27:46.319Z,350
2018-07-19T13:28:46.064Z,355
2018-07-19T13:29:46.353Z,355
2018-07-19T13:30:46.337Z,355
2018-07-19T13:31:46.086Z,345
2018-07-19T13:32:46.049Z,340
2018-07-19T13:33:46.040Z,340
2018-07-19T13:34:46.045Z,365
2018-07-19T13:35:46.049Z,405
2018-07-19T13:36:47.025Z,460
2018-07-19T13:37:46.347Z,510
2018-07-19T13:38:46.083Z,560
2018-07-19T13:39:46.388Z,590
2018-07-19T13:40:46.357Z,615
2018-07-19T13:41:46.302Z,640
2018-07-19T13:42:46.413Z,650
2018-07-19T13:43:46.055Z,660
2018-07-19T13:44:46.306Z,655
2018-07-19T13:45:46.049Z,640
2018-07-19T13:46:46.060Z,625
2018-07-19T13:47:46.302Z,610
2018-07-19T13:48:46.314Z,590
2018-07-19T13:49:46.330Z,585
2018-07-19T13:50:46.311Z,575
2018-07-19T13:51:46.318Z,575
2018-07-19T13:52:46.316Z,575
2018-07-19T13:53:46.073Z,580
2018-07-19T13:54:46.321Z,580
2018-07-19T13:55:46.319Z,565
2018-07-19T13:56:46.078Z,550
2018-07-19T13:57:46.323Z,540
2018-07-19T13:58:46.351Z,535
2018-07-19T13:59:46.345Z,520
2018-07-19T14:00:46.349Z,510